sensor_id;sensor_type;location;lat;lon;timestamp;temperature;humidity
69393;SHT31;56582;44.624;20.378;2022-10-31T00:02:24;13.33;85.57
69393;SHT31;56582;44.624;20.378;2022-10-31T00:04:50;13.27;85.66
69393;SHT31;56582;44.624;20.378;2022-10-31T00:07:15;13.27;85.83
69393;SHT31;56582;44.624;20.378;2022-10-31T00:09:40;13.24;86.08
69393;SHT31;56582;44.624;20.378;2022-10-31T00:12:06;13.18;86.36
69393;SHT31;56582;44.624;20.378;2022-10-31T00:14:31;13.22;86.25
69393;SHT31;56582;44.624;20.378;2022-10-31T00:16:57;13.20;86.09
69393;SHT31;56582;44.624;20.378;2022-10-31T00:19:22;13.03;86.37
69393;SHT31;56582;44.624;20.378;2022-10-31T00:21:48;13.05;86.87
69393;SHT31;56582;44.624;20.378;2022-10-31T00:24:13;13.12;86.70
69393;SHT31;56582;44.624;20.378;2022-10-31T00:26:39;13.12;86.82
69393;SHT31;56582;44.624;20.378;2022-10-31T00:29:04;13.11;86.55
69393;SHT31;56582;44.624;20.378;2022-10-31T00:31:29;13.03;86.49
69393;SHT31;56582;44.624;20.378;2022-10-31T00:33:55;13.02;86.36
69393;SHT31;56582;44.624;20.378;2022-10-31T00:36:21;12.98;85.89
69393;SHT31;56582;44.624;20.378;2022-10-31T00:38:46;12.93;85.52
69393;SHT31;56582;44.624;20.378;2022-10-31T00:41:14;12.84;85.61
69393;SHT31;56582;44.624;20.378;2022-10-31T00:43:40;12.68;86.26
69393;SHT31;56582;44.624;20.378;2022-10-31T00:46:06;12.54;87.08
69393;SHT31;56582;44.624;20.378;2022-10-31T00:48:31;12.57;87.29
69393;SHT31;56582;44.624;20.378;2022-10-31T00:50:57;12.60;87.12
69393;SHT31;56582;44.624;20.378;2022-10-31T00:53:22;12.65;86.84
69393;SHT31;56582;44.624;20.378;2022-10-31T00:55:48;12.65;86.56
69393;SHT31;56582;44.624;20.378;2022-10-31T00:58:13;12.77;86.39
69393;SHT31;56582;44.624;20.378;2022-10-31T01:00:39;12.77;86.29
69393;SHT31;56582;44.624;20.378;2022-10-31T01:03:04;12.69;86.60
69393;SHT31;56582;44.624;20.378;2022-10-31T01:05:30;12.65;86.67
69393;SHT31;56582;44.624;20.378;2022-10-31T01:07:56;12.67;86.80
69393;SHT31;56582;44.624;20.378;2022-10-31T01:10:21;12.72;86.85
69393;SHT31;56582;44.624;20.378;2022-10-31T01:12:48;12.74;86.88
69393;SHT31;56582;44.624;20.378;2022-10-31T01:15:17;12.65;87.40
69393;SHT31;56582;44.624;20.378;2022-10-31T01:17:43;12.64;87.40
69393;SHT31;56582;44.624;20.378;2022-10-31T01:20:11;12.58;87.45
69393;SHT31;56582;44.624;20.378;2022-10-31T01:22:36;12.60;87.38
69393;SHT31;56582;44.624;20.378;2022-10-31T01:25:02;12.47;87.39
69393;SHT31;56582;44.624;20.378;2022-10-31T01:27:28;12.38;87.87
69393;SHT31;56582;44.624;20.378;2022-10-31T01:29:53;12.34;88.39
69393;SHT31;56582;44.624;20.378;2022-10-31T01:32:19;12.47;88.36
69393;SHT31;56582;44.624;20.378;2022-10-31T01:34:44;12.48;88.41
69393;SHT31;56582;44.624;20.378;2022-10-31T01:37:10;12.57;88.06
69393;SHT31;56582;44.624;20.378;2022-10-31T01:39:35;12.60;87.98
69393;SHT31;56582;44.624;20.378;2022-10-31T01:42:01;12.55;87.66
69393;SHT31;56582;44.624;20.378;2022-10-31T01:47:11;12.58;87.59
69393;SHT31;56582;44.624;20.378;2022-10-31T01:49:53;12.38;88.27
69393;SHT31;56582;44.624;20.378;2022-10-31T01:52:39;12.44;87.95
69393;SHT31;56582;44.624;20.378;2022-10-31T01:57:53;12.07;89.38
69393;SHT31;56582;44.624;20.378;2022-10-31T02:00:20;12.09;89.44
69393;SHT31;56582;44.624;20.378;2022-10-31T02:02:47;12.10;89.59
69393;SHT31;56582;44.624;20.378;2022-10-31T02:05:16;12.06;90.04
69393;SHT31;56582;44.624;20.378;2022-10-31T02:08:05;12.16;88.85
69393;SHT31;56582;44.624;20.378;2022-10-31T02:10:34;12.24;88.80
69393;SHT31;56582;44.624;20.378;2022-10-31T02:13:03;12.27;89.03
69393;SHT31;56582;44.624;20.378;2022-10-31T02:15:30;12.37;88.28
69393;SHT31;56582;44.624;20.378;2022-10-31T02:17:57;12.33;87.76
69393;SHT31;56582;44.624;20.378;2022-10-31T02:20:24;12.27;87.82
69393;SHT31;56582;44.624;20.378;2022-10-31T02:33:46;13.82;89.76
69393;SHT31;56582;44.624;20.378;2022-10-31T02:36:25;14.15;88.57
69393;SHT31;56582;44.624;20.378;2022-10-31T02:38:55;14.15;85.22
69393;SHT31;56582;44.624;20.378;2022-10-31T02:44:38;13.42;81.40
69393;SHT31;56582;44.624;20.378;2022-10-31T02:47:23;12.99;82.24
69393;SHT31;56582;44.624;20.378;2022-10-31T02:49:55;12.72;83.10
69393;SHT31;56582;44.624;20.378;2022-10-31T02:52:27;12.32;84.52
69393;SHT31;56582;44.624;20.378;2022-10-31T02:54:54;12.17;85.54
69393;SHT31;56582;44.624;20.378;2022-10-31T02:57:25;12.20;86.08
69393;SHT31;56582;44.624;20.378;2022-10-31T03:00:00;12.30;86.07
69393;SHT31;56582;44.624;20.378;2022-10-31T03:10:58;12.02;85.23
69393;SHT31;56582;44.624;20.378;2022-10-31T03:13:47;11.82;85.60
69393;SHT31;56582;44.624;20.378;2022-10-31T03:18:57;11.44;87.31
69393;SHT31;56582;44.624;20.378;2022-10-31T03:21:29;11.61;87.35
69393;SHT31;56582;44.624;20.378;2022-10-31T03:23:56;11.62;87.20
69393;SHT31;56582;44.624;20.378;2022-10-31T03:26:23;11.64;86.98
69393;SHT31;56582;44.624;20.378;2022-10-31T03:29:10;11.52;87.23
69393;SHT31;56582;44.624;20.378;2022-10-31T03:31:40;11.59;87.36
69393;SHT31;56582;44.624;20.378;2022-10-31T03:34:07;11.58;87.94
69393;SHT31;56582;44.624;20.378;2022-10-31T03:36:35;11.68;88.14
69393;SHT31;56582;44.624;20.378;2022-10-31T03:39:04;11.68;87.56
69393;SHT31;56582;44.624;20.378;2022-10-31T03:41:34;11.76;87.36
69393;SHT31;56582;44.624;20.378;2022-10-31T03:44:17;11.86;87.10
69393;SHT31;56582;44.624;20.378;2022-10-31T03:46:44;11.82;87.31
69393;SHT31;56582;44.624;20.378;2022-10-31T03:49:11;11.87;87.17
69393;SHT31;56582;44.624;20.378;2022-10-31T03:51:45;11.78;86.99
69393;SHT31;56582;44.624;20.378;2022-10-31T03:54:36;11.65;87.24
69393;SHT31;56582;44.624;20.378;2022-10-31T03:57:29;11.51;87.95
69393;SHT31;56582;44.624;20.378;2022-10-31T04:00:04;11.57;88.11
69393;SHT31;56582;44.624;20.378;2022-10-31T04:02:32;11.42;88.39
69393;SHT31;56582;44.624;20.378;2022-10-31T04:04:59;11.32;89.40
69393;SHT31;56582;44.624;20.378;2022-10-31T04:07:28;11.44;89.07
69393;SHT31;56582;44.624;20.378;2022-10-31T04:09:56;11.61;89.09
69393;SHT31;56582;44.624;20.378;2022-10-31T04:12:24;11.68;88.75
69393;SHT31;56582;44.624;20.378;2022-10-31T04:14:51;11.69;88.42
69393;SHT31;56582;44.624;20.378;2022-10-31T04:17:21;11.75;88.32
69393;SHT31;56582;44.624;20.378;2022-10-31T04:19:47;11.58;89.08
69393;SHT31;56582;44.624;20.378;2022-10-31T04:22:13;11.72;89.01
69393;SHT31;56582;44.624;20.378;2022-10-31T04:24:40;11.76;88.90
69393;SHT31;56582;44.624;20.378;2022-10-31T04:27:05;11.83;90.23
69393;SHT31;56582;44.624;20.378;2022-10-31T04:29:31;11.83;90.55
69393;SHT31;56582;44.624;20.378;2022-10-31T04:31:57;11.71;90.04
69393;SHT31;56582;44.624;20.378;2022-10-31T04:34:22;11.76;90.25
69393;SHT31;56582;44.624;20.378;2022-10-31T04:36:48;11.66;89.75
69393;SHT31;56582;44.624;20.378;2022-10-31T04:39:13;11.74;91.38
69393;SHT31;56582;44.624;20.378;2022-10-31T04:41:38;11.66;90.14
69393;SHT31;56582;44.624;20.378;2022-10-31T04:44:04;11.62;90.99
69393;SHT31;56582;44.624;20.378;2022-10-31T04:46:29;11.78;94.53
69393;SHT31;56582;44.624;20.378;2022-10-31T04:48:55;11.64;92.13
69393;SHT31;56582;44.624;20.378;2022-10-31T04:51:20;11.58;90.96
69393;SHT31;56582;44.624;20.378;2022-10-31T04:53:46;11.51;91.62
69393;SHT31;56582;44.624;20.378;2022-10-31T04:56:11;11.55;92.05
69393;SHT31;56582;44.624;20.378;2022-10-31T04:58:37;11.95;95.21
69393;SHT31;56582;44.624;20.378;2022-10-31T05:01:02;11.76;93.33
69393;SHT31;56582;44.624;20.378;2022-10-31T05:03:27;11.69;91.20
69393;SHT31;56582;44.624;20.378;2022-10-31T05:05:53;11.62;92.50
69393;SHT31;56582;44.624;20.378;2022-10-31T05:08:18;11.71;92.98
69393;SHT31;56582;44.624;20.378;2022-10-31T05:10:44;11.51;90.78
69393;SHT31;56582;44.624;20.378;2022-10-31T05:13:09;11.18;91.30
69393;SHT31;56582;44.624;20.378;2022-10-31T05:15:34;11.31;90.54
69393;SHT31;56582;44.624;20.378;2022-10-31T05:18:00;11.20;91.67
69393;SHT31;56582;44.624;20.378;2022-10-31T05:20:27;11.11;91.30
69393;SHT31;56582;44.624;20.378;2022-10-31T05:22:59;11.10;91.59
69393;SHT31;56582;44.624;20.378;2022-10-31T05:25:26;11.13;91.54
69393;SHT31;56582;44.624;20.378;2022-10-31T05:27:53;11.39;90.46
69393;SHT31;56582;44.624;20.378;2022-10-31T05:30:21;11.41;89.79
69393;SHT31;56582;44.624;20.378;2022-10-31T05:32:48;11.44;89.61
69393;SHT31;56582;44.624;20.378;2022-10-31T05:35:19;11.35;89.32
69393;SHT31;56582;44.624;20.378;2022-10-31T05:37:45;11.30;90.00
69393;SHT31;56582;44.624;20.378;2022-10-31T05:40:12;11.08;90.57
69393;SHT31;56582;44.624;20.378;2022-10-31T05:42:39;11.20;90.82
69393;SHT31;56582;44.624;20.378;2022-10-31T05:45:06;11.31;90.45
69393;SHT31;56582;44.624;20.378;2022-10-31T05:47:32;11.39;89.87
69393;SHT31;56582;44.624;20.378;2022-10-31T05:49:57;11.42;89.87
69393;SHT31;56582;44.624;20.378;2022-10-31T05:52:23;11.46;90.78
69393;SHT31;56582;44.624;20.378;2022-10-31T05:54:48;11.55;89.86
69393;SHT31;56582;44.624;20.378;2022-10-31T05:57:13;11.62;89.34
69393;SHT31;56582;44.624;20.378;2022-10-31T05:59:39;11.76;88.90
69393;SHT31;56582;44.624;20.378;2022-10-31T06:02:04;11.79;88.78
69393;SHT31;56582;44.624;20.378;2022-10-31T06:04:30;11.90;88.47
69393;SHT31;56582;44.624;20.378;2022-10-31T06:06:56;11.95;88.14
69393;SHT31;56582;44.624;20.378;2022-10-31T06:09:21;12.02;87.92
69393;SHT31;56582;44.624;20.378;2022-10-31T06:11:47;12.05;87.84
69393;SHT31;56582;44.624;20.378;2022-10-31T06:14:12;12.05;87.93
69393;SHT31;56582;44.624;20.378;2022-10-31T06:16:38;12.09;88.14
69393;SHT31;56582;44.624;20.378;2022-10-31T06:19:03;12.16;87.88
69393;SHT31;56582;44.624;20.378;2022-10-31T06:21:29;12.19;87.64
69393;SHT31;56582;44.624;20.378;2022-10-31T06:23:54;12.06;88.08
69393;SHT31;56582;44.624;20.378;2022-10-31T06:26:19;12.09;88.97
69393;SHT31;56582;44.624;20.378;2022-10-31T06:28:45;12.23;88.92
69393;SHT31;56582;44.624;20.378;2022-10-31T06:31:10;12.41;88.45
69393;SHT31;56582;44.624;20.378;2022-10-31T06:33:36;12.53;87.90
69393;SHT31;56582;44.624;20.378;2022-10-31T06:36:02;12.68;87.68
69393;SHT31;56582;44.624;20.378;2022-10-31T06:38:28;12.82;87.46
69393;SHT31;56582;44.624;20.378;2022-10-31T06:40:54;12.96;87.36
69393;SHT31;56582;44.624;20.378;2022-10-31T06:43:21;12.99;87.72
69393;SHT31;56582;44.624;20.378;2022-10-31T06:45:47;13.08;87.42
69393;SHT31;56582;44.624;20.378;2022-10-31T06:48:12;13.18;87.55
69393;SHT31;56582;44.624;20.378;2022-10-31T06:50:38;13.30;86.85
69393;SHT31;56582;44.624;20.378;2022-10-31T06:53:03;13.47;86.47
69393;SHT31;56582;44.624;20.378;2022-10-31T06:55:29;13.63;85.56
69393;SHT31;56582;44.624;20.378;2022-10-31T06:57:57;13.75;86.19
69393;SHT31;56582;44.624;20.378;2022-10-31T07:00:23;13.85;85.11
69393;SHT31;56582;44.624;20.378;2022-10-31T07:03:10;13.87;86.45
69393;SHT31;56582;44.624;20.378;2022-10-31T07:05:36;13.82;86.50
69393;SHT31;56582;44.624;20.378;2022-10-31T07:08:04;13.80;85.42
69393;SHT31;56582;44.624;20.378;2022-10-31T07:10:32;13.67;84.90
69393;SHT31;56582;44.624;20.378;2022-10-31T07:13:00;13.84;85.26
69393;SHT31;56582;44.624;20.378;2022-10-31T07:15:27;14.22;89.86
69393;SHT31;56582;44.624;20.378;2022-10-31T07:17:52;14.15;86.50
69393;SHT31;56582;44.624;20.378;2022-10-31T07:20:18;14.29;86.80
69393;SHT31;56582;44.624;20.378;2022-10-31T07:22:44;14.32;87.42
69393;SHT31;56582;44.624;20.378;2022-10-31T07:25:10;14.29;85.02
69393;SHT31;56582;44.624;20.378;2022-10-31T07:27:39;13.91;83.68
69393;SHT31;56582;44.624;20.378;2022-10-31T07:30:07;13.73;83.99
69393;SHT31;56582;44.624;20.378;2022-10-31T07:32:43;13.95;84.35
69393;SHT31;56582;44.624;20.378;2022-10-31T07:35:17;14.07;82.45
69393;SHT31;56582;44.624;20.378;2022-10-31T07:37:43;13.75;82.45
69393;SHT31;56582;44.624;20.378;2022-10-31T07:40:09;13.78;82.95
69393;SHT31;56582;44.624;20.378;2022-10-31T07:42:39;13.84;82.94
69393;SHT31;56582;44.624;20.378;2022-10-31T07:45:07;13.81;82.62
69393;SHT31;56582;44.624;20.378;2022-10-31T07:50:13;14.17;80.62
69393;SHT31;56582;44.624;20.378;2022-10-31T07:52:39;14.12;81.27
69393;SHT31;56582;44.624;20.378;2022-10-31T07:55:05;14.21;82.82
69393;SHT31;56582;44.624;20.378;2022-10-31T07:57:31;14.25;82.13
69393;SHT31;56582;44.624;20.378;2022-10-31T07:59:56;14.21;81.95
69393;SHT31;56582;44.624;20.378;2022-10-31T08:02:22;14.28;81.76
69393;SHT31;56582;44.624;20.378;2022-10-31T08:04:48;14.62;80.93
69393;SHT31;56582;44.624;20.378;2022-10-31T08:07:13;14.40;80.82
69393;SHT31;56582;44.624;20.378;2022-10-31T08:09:39;14.35;81.54
69393;SHT31;56582;44.624;20.378;2022-10-31T08:12:04;14.39;82.33
69393;SHT31;56582;44.624;20.378;2022-10-31T08:14:30;14.83;80.94
69393;SHT31;56582;44.624;20.378;2022-10-31T08:16:55;14.83;80.81
69393;SHT31;56582;44.624;20.378;2022-10-31T08:19:21;14.69;80.28
69393;SHT31;56582;44.624;20.378;2022-10-31T08:21:46;14.84;80.02
69393;SHT31;56582;44.624;20.378;2022-10-31T08:24:15;14.84;80.24
69393;SHT31;56582;44.624;20.378;2022-10-31T08:26:40;14.67;79.61
69393;SHT31;56582;44.624;20.378;2022-10-31T08:29:06;14.77;78.87
69393;SHT31;56582;44.624;20.378;2022-10-31T08:31:31;14.73;79.58
69393;SHT31;56582;44.624;20.378;2022-10-31T08:33:56;14.93;79.06
69393;SHT31;56582;44.624;20.378;2022-10-31T08:36:22;14.94;79.22
69393;SHT31;56582;44.624;20.378;2022-10-31T08:38:48;15.08;79.53
69393;SHT31;56582;44.624;20.378;2022-10-31T08:41:14;15.15;78.10
69393;SHT31;56582;44.624;20.378;2022-10-31T08:43:39;15.51;76.29
69393;SHT31;56582;44.624;20.378;2022-10-31T08:46:05;15.45;77.12
69393;SHT31;56582;44.624;20.378;2022-10-31T08:48:31;15.35;77.50
69393;SHT31;56582;44.624;20.378;2022-10-31T08:50:58;15.38;78.29
69393;SHT31;56582;44.624;20.378;2022-10-31T08:53:24;15.23;78.45
69393;SHT31;56582;44.624;20.378;2022-10-31T08:55:49;15.44;78.05
69393;SHT31;56582;44.624;20.378;2022-10-31T08:58:17;15.30;78.13
69393;SHT31;56582;44.624;20.378;2022-10-31T09:00:43;15.49;78.24
69393;SHT31;56582;44.624;20.378;2022-10-31T09:03:12;15.62;78.48
69393;SHT31;56582;44.624;20.378;2022-10-31T09:05:38;15.42;76.85
69393;SHT31;56582;44.624;20.378;2022-10-31T09:08:06;15.51;77.44
69393;SHT31;56582;44.624;20.378;2022-10-31T09:10:33;15.96;77.50
69393;SHT31;56582;44.624;20.378;2022-10-31T09:13:04;15.89;77.48
69393;SHT31;56582;44.624;20.378;2022-10-31T09:15:35;16.03;77.66
69393;SHT31;56582;44.624;20.378;2022-10-31T09:18:01;16.04;77.90
69393;SHT31;56582;44.624;20.378;2022-10-31T09:20:27;16.16;78.48
69393;SHT31;56582;44.624;20.378;2022-10-31T09:23:01;16.20;78.59
69393;SHT31;56582;44.624;20.378;2022-10-31T09:25:27;16.47;78.92
69393;SHT31;56582;44.624;20.378;2022-10-31T09:27:57;16.55;78.30
69393;SHT31;56582;44.624;20.378;2022-10-31T09:30:23;16.68;77.77
69393;SHT31;56582;44.624;20.378;2022-10-31T09:32:54;16.78;78.13
69393;SHT31;56582;44.624;20.378;2022-10-31T09:35:20;16.73;77.10
69393;SHT31;56582;44.624;20.378;2022-10-31T09:37:45;16.83;77.80
69393;SHT31;56582;44.624;20.378;2022-10-31T09:40:11;17.05;77.51
69393;SHT31;56582;44.624;20.378;2022-10-31T09:50:12;17.34;78.06
69393;SHT31;56582;44.624;20.378;2022-10-31T09:52:43;17.63;77.33
69393;SHT31;56582;44.624;20.378;2022-10-31T09:55:22;17.64;77.04
69393;SHT31;56582;44.624;20.378;2022-10-31T09:57:49;17.82;76.25
69393;SHT31;56582;44.624;20.378;2022-10-31T10:00:20;17.82;76.21
69393;SHT31;56582;44.624;20.378;2022-10-31T10:05:18;17.92;75.33
69393;SHT31;56582;44.624;20.378;2022-10-31T10:08:03;18.06;74.91
69393;SHT31;56582;44.624;20.378;2022-10-31T10:16:12;18.02;76.11
69393;SHT31;56582;44.624;20.378;2022-10-31T10:18:45;18.16;76.47
69393;SHT31;56582;44.624;20.378;2022-10-31T10:26:38;18.43;75.69
69393;SHT31;56582;44.624;20.378;2022-10-31T10:29:28;18.71;74.67
69393;SHT31;56582;44.624;20.378;2022-10-31T10:31:57;18.57;74.92
69393;SHT31;56582;44.624;20.378;2022-10-31T10:34:29;18.95;73.27
69393;SHT31;56582;44.624;20.378;2022-10-31T10:37:05;18.67;74.47
69393;SHT31;56582;44.624;20.378;2022-10-31T10:39:43;18.94;72.38
69393;SHT31;56582;44.624;20.378;2022-10-31T10:42:13;19.03;73.18
69393;SHT31;56582;44.624;20.378;2022-10-31T10:44:58;18.90;73.09
69393;SHT31;56582;44.624;20.378;2022-10-31T10:47:45;18.97;73.63
69393;SHT31;56582;44.624;20.378;2022-10-31T10:50:24;18.77;74.40
69393;SHT31;56582;44.624;20.378;2022-10-31T10:53:02;19.21;72.81
69393;SHT31;56582;44.624;20.378;2022-10-31T10:55:32;19.10;73.10
69393;SHT31;56582;44.624;20.378;2022-10-31T10:58:11;19.11;72.27
69393;SHT31;56582;44.624;20.378;2022-10-31T11:00:41;19.15;73.30
69393;SHT31;56582;44.624;20.378;2022-10-31T11:03:08;19.26;73.96
69393;SHT31;56582;44.624;20.378;2022-10-31T11:08:10;19.35;72.87
69393;SHT31;56582;44.624;20.378;2022-10-31T11:10:36;19.34;73.03
69393;SHT31;56582;44.624;20.378;2022-10-31T11:15:37;19.32;73.14
69393;SHT31;56582;44.624;20.378;2022-10-31T11:18:03;19.34;73.18
69393;SHT31;56582;44.624;20.378;2022-10-31T11:20:32;19.16;72.58
69393;SHT31;56582;44.624;20.378;2022-10-31T11:23:19;19.22;73.28
69393;SHT31;56582;44.624;20.378;2022-10-31T11:25:57;19.24;73.02
69393;SHT31;56582;44.624;20.378;2022-10-31T11:28:23;19.31;72.40
69393;SHT31;56582;44.624;20.378;2022-10-31T11:30:52;19.24;71.09
69393;SHT31;56582;44.624;20.378;2022-10-31T11:33:29;19.19;71.53
69393;SHT31;56582;44.624;20.378;2022-10-31T11:35:56;19.65;69.82
69393;SHT31;56582;44.624;20.378;2022-10-31T11:38:24;19.72;71.73
69393;SHT31;56582;44.624;20.378;2022-10-31T11:41:12;19.80;71.40
69393;SHT31;56582;44.624;20.378;2022-10-31T11:43:45;19.65;69.42
69393;SHT31;56582;44.624;20.378;2022-10-31T11:46:14;19.76;70.90
69393;SHT31;56582;44.624;20.378;2022-10-31T11:48:47;19.62;68.97
69393;SHT31;56582;44.624;20.378;2022-10-31T11:51:20;19.77;68.08
69393;SHT31;56582;44.624;20.378;2022-10-31T11:53:54;19.87;68.80
69393;SHT31;56582;44.624;20.378;2022-10-31T11:56:20;19.76;68.12
69393;SHT31;56582;44.624;20.378;2022-10-31T11:58:56;19.76;66.83
69393;SHT31;56582;44.624;20.378;2022-10-31T12:01:29;19.84;67.54
69393;SHT31;56582;44.624;20.378;2022-10-31T12:04:05;20.11;66.99
69393;SHT31;56582;44.624;20.378;2022-10-31T12:06:36;20.24;67.27
69393;SHT31;56582;44.624;20.378;2022-10-31T12:09:04;20.18;66.59
69393;SHT31;56582;44.624;20.378;2022-10-31T12:17:23;20.30;64.26
69393;SHT31;56582;44.624;20.378;2022-10-31T12:22:54;20.37;66.68
69393;SHT31;56582;44.624;20.378;2022-10-31T12:30:46;20.42;65.11
69393;SHT31;56582;44.624;20.378;2022-10-31T12:41:52;20.44;60.82
69393;SHT31;56582;44.624;20.378;2022-10-31T12:52:23;20.75;62.00
69393;SHT31;56582;44.624;20.378;2022-10-31T12:57:50;20.73;61.28
69393;SHT31;56582;44.624;20.378;2022-10-31T13:00:18;20.67;58.75
69393;SHT31;56582;44.624;20.378;2022-10-31T13:05:45;20.81;57.09
69393;SHT31;56582;44.624;20.378;2022-10-31T13:08:21;20.64;56.80
69393;SHT31;56582;44.624;20.378;2022-10-31T13:11:05;20.73;61.62
69393;SHT31;56582;44.624;20.378;2022-10-31T13:13:55;20.67;60.93
69393;SHT31;56582;44.624;20.378;2022-10-31T13:16:21;20.83;61.75
69393;SHT31;56582;44.624;20.378;2022-10-31T13:18:55;20.90;63.85
69393;SHT31;56582;44.624;20.378;2022-10-31T13:21:26;20.86;62.57
69393;SHT31;56582;44.624;20.378;2022-10-31T13:23:52;20.86;61.11
69393;SHT31;56582;44.624;20.378;2022-10-31T13:26:35;20.65;60.92
69393;SHT31;56582;44.624;20.378;2022-10-31T13:29:18;20.68;61.33
69393;SHT31;56582;44.624;20.378;2022-10-31T13:31:45;20.73;62.78
69393;SHT31;56582;44.624;20.378;2022-10-31T13:34:22;20.44;64.72
69393;SHT31;56582;44.624;20.378;2022-10-31T13:36:57;20.32;65.17
69393;SHT31;56582;44.624;20.378;2022-10-31T13:40:08;20.45;65.66
69393;SHT31;56582;44.624;20.378;2022-10-31T13:42:54;20.37;66.05
69393;SHT31;56582;44.624;20.378;2022-10-31T13:45:23;20.23;65.84
69393;SHT31;56582;44.624;20.378;2022-10-31T13:48:01;20.21;66.17
69393;SHT31;56582;44.624;20.378;2022-10-31T13:50:31;20.14;67.79
69393;SHT31;56582;44.624;20.378;2022-10-31T13:55:45;19.61;72.00
69393;SHT31;56582;44.624;20.378;2022-10-31T13:58:28;19.42;73.04
69393;SHT31;56582;44.624;20.378;2022-10-31T14:01:15;19.46;73.20
69393;SHT31;56582;44.624;20.378;2022-10-31T14:03:44;19.29;74.01
69393;SHT31;56582;44.624;20.378;2022-10-31T14:06:11;19.16;74.13
69393;SHT31;56582;44.624;20.378;2022-10-31T14:08:41;19.16;74.22
69393;SHT31;56582;44.624;20.378;2022-10-31T14:11:22;19.14;74.63
69393;SHT31;56582;44.624;20.378;2022-10-31T14:13:48;18.98;74.66
69393;SHT31;56582;44.624;20.378;2022-10-31T14:16:23;18.97;75.07
69393;SHT31;56582;44.624;20.378;2022-10-31T14:19:06;18.87;75.40
69393;SHT31;56582;44.624;20.378;2022-10-31T14:21:44;18.97;74.68
69393;SHT31;56582;44.624;20.378;2022-10-31T14:24:32;18.81;74.44
69393;SHT31;56582;44.624;20.378;2022-10-31T14:27:03;18.80;74.97
69393;SHT31;56582;44.624;20.378;2022-10-31T14:29:31;18.86;74.57
69393;SHT31;56582;44.624;20.378;2022-10-31T14:32:11;18.68;75.24
69393;SHT31;56582;44.624;20.378;2022-10-31T14:34:41;18.66;75.50
69393;SHT31;56582;44.624;20.378;2022-10-31T14:53:27;18.50;76.26
69393;SHT31;56582;44.624;20.378;2022-10-31T14:55:56;18.22;77.15
69393;SHT31;56582;44.624;20.378;2022-10-31T14:58:40;17.94;77.89
69393;SHT31;56582;44.624;20.378;2022-10-31T15:01:24;17.91;78.26
69393;SHT31;56582;44.624;20.378;2022-10-31T15:03:50;17.87;78.34
69393;SHT31;56582;44.624;20.378;2022-10-31T15:06:18;17.95;78.34
69393;SHT31;56582;44.624;20.378;2022-10-31T15:08:47;17.71;78.80
69393;SHT31;56582;44.624;20.378;2022-10-31T15:11:21;17.53;79.44
69393;SHT31;56582;44.624;20.378;2022-10-31T15:13:49;17.50;79.83
69393;SHT31;56582;44.624;20.378;2022-10-31T15:16:39;17.54;79.58
69393;SHT31;56582;44.624;20.378;2022-10-31T15:19:04;17.30;80.02
69393;SHT31;56582;44.624;20.378;2022-10-31T15:21:31;17.40;79.88
69393;SHT31;56582;44.624;20.378;2022-10-31T15:23:59;17.36;79.66
69393;SHT31;56582;44.624;20.378;2022-10-31T15:26:33;16.96;81.10
69393;SHT31;56582;44.624;20.378;2022-10-31T15:29:05;17.29;80.34
69393;SHT31;56582;44.624;20.378;2022-10-31T15:31:31;17.10;80.59
69393;SHT31;56582;44.624;20.378;2022-10-31T15:34:06;17.39;79.71
69393;SHT31;56582;44.624;20.378;2022-10-31T15:36:32;17.29;80.34
69393;SHT31;56582;44.624;20.378;2022-10-31T15:38:58;17.20;80.53
69393;SHT31;56582;44.624;20.378;2022-10-31T15:41:38;17.03;80.78
69393;SHT31;56582;44.624;20.378;2022-10-31T15:44:31;16.99;81.14
69393;SHT31;56582;44.624;20.378;2022-10-31T15:47:01;16.98;81.24
69393;SHT31;56582;44.624;20.378;2022-10-31T15:49:36;17.18;80.99
69393;SHT31;56582;44.624;20.378;2022-10-31T15:52:13;16.98;80.96
69393;SHT31;56582;44.624;20.378;2022-10-31T15:54:47;16.99;80.95
69393;SHT31;56582;44.624;20.378;2022-10-31T15:57:13;17.12;80.36
69393;SHT31;56582;44.624;20.378;2022-10-31T15:59:40;17.13;80.43
69393;SHT31;56582;44.624;20.378;2022-10-31T16:02:10;17.06;80.59
69393;SHT31;56582;44.624;20.378;2022-10-31T16:04:36;17.36;79.41
69393;SHT31;56582;44.624;20.378;2022-10-31T16:07:22;17.15;80.03
69393;SHT31;56582;44.624;20.378;2022-10-31T16:09:54;17.24;79.48
69393;SHT31;56582;44.624;20.378;2022-10-31T16:12:22;17.16;79.91
69393;SHT31;56582;44.624;20.378;2022-10-31T16:14:51;17.16;79.81
69393;SHT31;56582;44.624;20.378;2022-10-31T16:17:21;16.99;79.83
69393;SHT31;56582;44.624;20.378;2022-10-31T16:19:58;16.96;80.32
69393;SHT31;56582;44.624;20.378;2022-10-31T16:22:29;16.95;79.71
69393;SHT31;56582;44.624;20.378;2022-10-31T16:25:22;16.85;80.14
69393;SHT31;56582;44.624;20.378;2022-10-31T16:27:49;16.88;79.56
69393;SHT31;56582;44.624;20.378;2022-10-31T16:30:41;16.81;79.50
69393;SHT31;56582;44.624;20.378;2022-10-31T16:35:51;16.69;79.36
69393;SHT31;56582;44.624;20.378;2022-10-31T16:38:17;16.69;79.27
69393;SHT31;56582;44.624;20.378;2022-10-31T16:40:43;16.58;79.54
69393;SHT31;56582;44.624;20.378;2022-10-31T16:43:12;16.54;79.56
69393;SHT31;56582;44.624;20.378;2022-10-31T16:45:46;16.62;78.21
69393;SHT31;56582;44.624;20.378;2022-10-31T16:48:14;16.65;77.33
69393;SHT31;56582;44.624;20.378;2022-10-31T16:50:41;16.69;76.47
69393;SHT31;56582;44.624;20.378;2022-10-31T16:53:08;16.64;76.25
69393;SHT31;56582;44.624;20.378;2022-10-31T16:55:37;16.44;76.89
69393;SHT31;56582;44.624;20.378;2022-10-31T16:58:16;16.47;77.00
69393;SHT31;56582;44.624;20.378;2022-10-31T17:00:42;16.35;77.06
69393;SHT31;56582;44.624;20.378;2022-10-31T17:03:08;16.14;77.67
69393;SHT31;56582;44.624;20.378;2022-10-31T17:05:34;16.24;77.83
69393;SHT31;56582;44.624;20.378;2022-10-31T17:08:00;16.25;78.34
69393;SHT31;56582;44.624;20.378;2022-10-31T17:10:26;16.18;78.30
69393;SHT31;56582;44.624;20.378;2022-10-31T17:12:52;16.17;78.97
69393;SHT31;56582;44.624;20.378;2022-10-31T17:15:26;16.24;79.76
69393;SHT31;56582;44.624;20.378;2022-10-31T17:17:53;16.16;79.75
69393;SHT31;56582;44.624;20.378;2022-10-31T17:20:28;16.13;80.16
69393;SHT31;56582;44.624;20.378;2022-10-31T17:22:54;16.23;79.92
69393;SHT31;56582;44.624;20.378;2022-10-31T17:25:23;16.25;79.72
69393;SHT31;56582;44.624;20.378;2022-10-31T17:27:50;16.30;79.68
69393;SHT31;56582;44.624;20.378;2022-10-31T17:30:16;16.20;80.04